Time;durP1;ratioP1;P1;durP2;ratioP2;P2;SDS_P1;SDS_P2;PMS_P1;PMS_P2;Temp;Humidity;BMP_temperature;BMP_pressure;BME280_temperature;BME280_humidity;BME280_pressure;Samples;Min_cycle;Max_cycle;Signal;HPM_P1;HPM_P2
2022/01/06 00:01:59;;;;;;;2.70;2.10;;;15.70;59.40;16.80;100559.00;;;;5028304;28;20680;-41
2022/01/06 00:04:24;;;;;;;3.47;2.20;;;15.70;59.20;16.70;100560.00;;;;5027393;28;20179;-40
2022/01/06 00:06:50;;;;;;;3.60;2.10;;;15.60;59.50;16.70;100560.00;;;;5028403;28;20618;-41
2022/01/06 00:09:18;;;;;;;3.13;2.00;;;15.60;59.30;16.70;100567.00;;;;5028531;28;20644;-40
2022/01/06 00:11:43;;;;;;;2.47;2.10;;;15.60;59.50;16.70;100554.00;;;;5027921;28;20210;-41
2022/01/06 00:14:20;;;;;;;2.67;1.73;;;15.60;59.60;16.70;100560.00;;;;5028340;28;20819;-40
2022/01/06 00:16:59;;;;;;;3.13;2.00;;;15.60;59.50;16.70;100562.00;;;;5028456;28;20201;-40
2022/01/06 00:24:53;;;;;;;2.33;2.00;;;15.50;59.60;16.60;100574.00;;;;5026994;28;20212;-40
2022/01/06 00:27:18;;;;;;;2.33;1.87;;;15.50;59.60;16.60;100578.00;;;;5027869;28;20190;-40
2022/01/06 00:29:44;;;;;;;2.47;2.07;;;15.50;59.60;16.60;100587.00;;;;5027701;28;20179;-40
2022/01/06 00:32:10;;;;;;;4.17;1.97;;;15.40;59.70;16.50;100595.00;;;;5010596;28;20175;-40
2022/01/06 00:34:36;;;;;;;1.90;1.70;;;15.40;59.90;16.50;100593.00;;;;5028102;28;20167;-40
2022/01/06 00:37:02;;;;;;;2.50;2.10;;;15.40;59.90;16.50;100596.00;;;;5027854;28;20286;-40
2022/01/06 00:39:28;;;;;;;2.37;1.97;;;15.40;59.80;16.50;100599.00;;;;5027786;28;20164;-40
2022/01/06 00:41:56;;;;;;;2.10;1.90;;;15.40;59.80;16.50;100594.00;;;;5027821;28;20258;-41
2022/01/06 00:44:23;;;;;;;2.80;2.00;;;15.30;59.80;16.50;100598.00;;;;5027820;28;20172;-41
2022/01/06 00:46:50;;;;;;;2.57;2.00;;;15.30;59.90;16.40;100575.00;;;;5032472;28;20246;-41
2022/01/06 00:49:17;;;;;;;2.07;1.87;;;15.30;60.10;16.40;100601.00;;;;5040718;28;20808;-40
2022/01/06 00:51:43;;;;;;;2.50;1.80;;;15.30;60.00;16.40;100607.00;;;;5042729;28;20183;-41
2022/01/06 00:54:09;;;;;;;2.43;1.80;;;15.30;59.80;16.40;100608.00;;;;5029815;28;20234;-40
2022/01/06 00:56:35;;;;;;;2.30;1.87;;;15.30;60.70;16.40;100600.00;;;;5027627;28;20348;-40
2022/01/06 00:59:00;;;;;;;2.40;1.87;;;15.30;59.80;16.30;100608.00;;;;5027367;28;20253;-40
2022/01/06 01:01:26;;;;;;;2.30;2.00;;;15.30;60.10;16.30;100613.00;;;;5027412;28;20171;-41
2022/01/06 01:03:52;;;;;;;2.10;1.63;;;15.20;60.70;16.30;100612.00;;;;5027118;28;20191;-40
2022/01/06 01:06:17;;;;;;;2.83;1.90;;;15.20;59.90;16.30;100616.00;;;;5027511;28;20519;-41
2022/01/06 01:08:43;;;;;;;2.43;1.80;;;15.20;59.90;16.30;100623.00;;;;5026849;28;20179;-40
2022/01/06 01:11:09;;;;;;;2.47;1.90;;;15.20;59.80;16.30;100625.00;;;;5025812;28;20182;-41
2022/01/06 01:13:43;;;;;;;3.03;1.77;;;15.20;60.10;16.30;100626.00;;;;5026960;28;20182;-41
2022/01/06 01:16:21;;;;;;;2.63;2.00;;;15.20;60.00;16.20;100622.00;;;;5026752;28;20554;-41
2022/01/06 01:18:48;;;;;;;3.83;2.00;;;15.20;59.90;16.20;100616.00;;;;5027020;28;20244;-41
2022/01/06 01:21:14;;;;;;;4.57;1.87;;;15.20;59.80;16.20;100625.00;;;;5027161;28;20776;-40
2022/01/06 01:23:40;;;;;;;2.17;1.97;;;15.20;60.00;16.20;100631.00;;;;5026751;28;20203;-40
2022/01/06 01:26:05;;;;;;;2.30;1.83;;;15.10;59.80;16.20;100627.00;;;;5026916;28;20167;-40
2022/01/06 01:28:42;;;;;;;3.37;1.90;;;15.10;60.10;16.20;100621.00;;;;5026337;28;20670;-42
2022/01/06 01:31:44;;;;;;;1.80;1.70;;;15.10;60.00;16.20;100627.00;;;;5026914;28;20207;-42
2022/01/06 01:34:06;;;;;;;2.10;1.80;;;15.10;59.90;16.10;100624.00;;;;5024435;28;20194;-40
2022/01/06 01:36:32;;;;;;;2.20;1.83;;;15.00;59.90;16.10;100645.00;;;;5026844;28;20206;-40
2022/01/06 01:38:58;;;;;;;2.47;1.80;;;15.00;59.90;16.10;100649.00;;;;5026245;28;20167;-41
2022/01/06 01:41:23;;;;;;;1.90;1.70;;;15.00;60.30;16.10;100639.00;;;;5026865;28;20207;-40
2022/01/06 01:43:50;;;;;;;2.10;1.90;;;15.00;60.70;16.10;100647.00;;;;5026854;28;20844;-40
2022/01/06 01:46:19;;;;;;;2.27;1.80;;;15.00;60.30;16.10;100638.00;;;;5026582;28;20662;-41
2022/01/06 01:48:52;;;;;;;2.20;1.90;;;14.90;60.20;16.10;100650.00;;;;5025002;28;20320;-41
2022/01/06 01:51:17;;;;;;;2.30;1.80;;;14.90;60.50;16.00;100646.00;;;;5026321;28;20173;-40
2022/01/06 01:53:43;;;;;;;2.80;1.83;;;14.90;60.40;16.00;100661.00;;;;5026589;28;20648;-41
2022/01/06 01:56:10;;;;;;;1.97;1.73;;;14.90;60.30;16.00;100655.00;;;;5026694;28;20170;-41
2022/01/06 01:58:37;;;;;;;2.33;1.90;;;14.90;60.30;16.00;100650.00;;;;5026408;28;20931;-41
2022/01/06 02:01:03;;;;;;;2.00;1.83;;;14.90;60.20;16.00;100651.00;;;;5026222;28;20182;-41
2022/01/06 02:03:29;;;;;;;2.47;1.80;;;14.90;60.20;16.00;100657.00;;;;5026357;28;20187;-40
2022/01/06 02:05:55;;;;;;;2.20;1.80;;;14.80;60.40;16.00;100656.00;;;;5026341;28;20182;-41
2022/01/06 02:08:20;;;;;;;1.90;1.70;;;14.80;60.60;16.00;100650.00;;;;5026601;28;20190;-41
2022/01/06 02:10:46;;;;;;;1.97;1.77;;;14.80;60.60;16.00;100669.00;;;;5008100;28;20198;-40
2022/01/06 02:13:12;;;;;;;2.20;1.83;;;14.80;60.50;16.00;100661.00;;;;5026102;28;20166;-41
2022/01/06 02:15:37;;;;;;;2.30;1.70;;;14.80;60.60;15.90;100667.00;;;;5025973;28;20175;-40
2022/01/06 02:18:03;;;;;;;2.37;1.80;;;14.80;60.50;15.90;100672.00;;;;5025794;28;20194;-40
2022/01/06 02:20:29;;;;;;;2.90;2.10;;;14.80;60.70;15.90;100673.00;;;;5025661;28;20199;-40
2022/01/06 02:22:55;;;;;;;2.10;1.83;;;14.80;60.50;15.90;100667.00;;;;5025758;28;20191;-40
2022/01/06 02:25:31;;;;;;;2.43;2.00;;;14.80;60.50;15.90;100666.00;;;;5025678;28;20171;-41
2022/01/06 02:27:57;;;;;;;2.20;1.90;;;14.70;60.70;15.90;100667.00;;;;5025613;28;20194;-43
2022/01/06 02:30:24;;;;;;;1.97;1.73;;;14.70;60.60;15.80;100674.00;;;;5025425;28;20167;-40
2022/01/06 02:32:50;;;;;;;2.00;1.80;;;14.70;60.50;15.80;100670.00;;;;5026223;28;20175;-42
2022/01/06 02:35:18;;;;;;;3.03;2.10;;;14.80;60.50;15.80;100668.00;;;;5026103;28;20670;-40
2022/01/06 02:37:44;;;;;;;2.00;1.80;;;14.70;60.70;15.80;100670.00;;;;5025633;28;20194;-41
2022/01/06 02:40:18;;;;;;;1.97;1.70;;;14.70;60.50;15.80;100677.00;;;;5025716;28;20174;-40
2022/01/06 02:42:50;;;;;;;2.87;2.00;;;14.70;61.00;15.80;100678.00;;;;5025818;28;20186;-41
2022/01/06 02:45:16;;;;;;;2.13;1.87;;;14.70;60.50;15.80;100686.00;;;;5037843;28;20158;-41
2022/01/06 02:47:42;;;;;;;2.17;1.70;;;14.70;60.60;15.80;100683.00;;;;5028277;28;20216;-40
2022/01/06 02:50:09;;;;;;;1.80;1.57;;;14.60;60.40;15.80;100683.00;;;;5026418;28;20167;-41
2022/01/06 02:52:34;;;;;;;1.93;1.80;;;14.60;60.70;15.70;100681.00;;;;5027033;28;20261;-40
2022/01/06 02:55:00;;;;;;;2.10;1.90;;;14.60;60.80;15.70;100678.00;;;;5026174;28;20279;-41
2022/01/06 02:57:26;;;;;;;2.10;1.70;;;14.60;60.90;15.70;100691.00;;;;5025088;28;20220;-40
2022/01/06 02:59:51;;;;;;;2.07;1.60;;;14.60;60.80;15.70;100688.00;;;;5025909;28;20171;-40
2022/01/06 03:02:17;;;;;;;1.83;1.63;;;14.60;61.10;15.70;100695.00;;;;5025699;28;20198;-41
2022/01/06 03:04:43;;;;;;;1.90;1.77;;;14.60;60.90;15.70;100708.00;;;;5025839;28;20160;-40
2022/01/06 03:07:09;;;;;;;2.13;1.80;;;14.50;60.90;15.70;100705.00;;;;5025356;28;20839;-40
2022/01/06 03:09:39;;;;;;;2.30;1.80;;;14.60;61.50;15.70;100706.00;;;;5025299;28;20167;-40
2022/01/06 03:12:11;;;;;;;1.90;1.67;;;14.50;62.50;15.70;100705.00;;;;5025135;28;20174;-41
2022/01/06 03:14:37;;;;;;;2.97;1.80;;;14.50;62.20;15.60;100706.00;;;;5025549;28;20195;-40
2022/01/06 03:17:04;;;;;;;1.80;1.70;;;14.50;62.10;15.60;100715.00;;;;5025488;28;20218;-41
2022/01/06 03:19:30;;;;;;;2.20;1.80;;;14.40;62.10;15.60;100721.00;;;;5025251;28;20209;-40
2022/01/06 03:21:56;;;;;;;2.10;1.77;;;14.50;62.00;15.60;100718.00;;;;5025455;28;20171;-40
2022/01/06 03:24:22;;;;;;;1.93;1.73;;;14.50;61.90;15.60;100712.00;;;;5025561;28;20203;-41
2022/01/06 03:26:47;;;;;;;2.23;1.80;;;14.50;61.90;15.60;100719.00;;;;5025355;28;20572;-41
2022/01/06 03:29:14;;;;;;;1.83;1.73;;;14.40;61.70;15.60;100720.00;;;;5025006;28;20258;-41
2022/01/06 03:31:39;;;;;;;2.37;1.80;;;14.40;61.80;15.60;100718.00;;;;5025097;28;20163;-41
2022/01/06 03:34:05;;;;;;;3.10;2.00;;;14.40;61.90;15.60;100717.00;;;;5025513;28;20172;-41
2022/01/06 03:36:31;;;;;;;1.77;1.60;;;14.40;61.80;15.50;100716.00;;;;5025271;28;20241;-41
2022/01/06 03:38:56;;;;;;;2.57;1.90;;;14.40;61.90;15.60;100723.00;;;;5028408;28;20199;-42
2022/01/06 03:41:22;;;;;;;2.80;1.90;;;14.30;61.70;15.50;100718.00;;;;5029892;28;20221;-40
2022/01/06 03:43:48;;;;;;;1.80;1.70;;;14.30;61.50;15.50;100728.00;;;;5035969;28;20856;-42
2022/01/06 03:46:13;;;;;;;2.50;1.97;;;14.30;61.80;15.50;100716.00;;;;5029238;28;20171;-40
2022/01/06 03:48:39;;;;;;;2.33;1.67;;;14.30;61.70;15.50;100721.00;;;;5028766;28;20171;-42
2022/01/06 03:51:05;;;;;;;2.50;1.90;;;14.30;61.70;15.50;100722.00;;;;5031042;28;20229;-41
2022/01/06 03:53:30;;;;;;;2.33;1.70;;;14.30;62.00;15.50;100720.00;;;;5031176;28;20167;-41
2022/01/06 03:55:56;;;;;;;1.60;1.50;;;14.30;62.00;15.40;100730.00;;;;5029216;28;20528;-42
2022/01/06 03:58:22;;;;;;;1.90;1.70;;;14.30;61.50;15.40;100731.00;;;;5028494;28;20667;-41
2022/01/06 04:00:47;;;;;;;2.37;1.80;;;14.30;61.40;15.40;100735.00;;;;5029175;28;20254;-40
2022/01/06 04:03:13;;;;;;;2.00;1.80;;;14.30;61.40;15.40;100752.00;;;;5028580;28;20198;-41
2022/01/06 04:05:39;;;;;;;2.23;1.80;;;14.30;61.00;15.40;100740.00;;;;5028818;28;20229;-41
2022/01/06 04:08:05;;;;;;;2.67;1.70;;;14.30;60.90;15.40;100745.00;;;;5027958;28;20225;-40
2022/01/06 04:10:30;;;;;;;2.47;1.87;;;14.30;61.30;15.40;100732.00;;;;5028466;28;20164;-41
2022/01/06 04:12:56;;;;;;;2.67;1.80;;;14.30;61.00;15.30;100751.00;;;;5028526;28;20181;-41
2022/01/06 04:15:25;;;;;;;2.23;1.73;;;14.30;61.10;15.30;100744.00;;;;5028335;28;20182;-40
2022/01/06 04:17:51;;;;;;;9.37;2.00;;;14.30;60.90;15.30;100742.00;;;;5027257;28;20195;-41
2022/01/06 04:20:16;;;;;;;10.50;2.00;;;14.30;62.00;15.30;100751.00;;;;5027748;28;20552;-40
2022/01/06 04:22:43;;;;;;;5.73;2.10;;;14.20;62.20;15.30;100760.00;;;;5028660;28;20195;-40
2022/01/06 04:25:09;;;;;;;3.67;1.90;;;14.20;61.80;15.30;100768.00;;;;5028826;28;20175;-40
2022/01/06 04:27:35;;;;;;;6.00;1.90;;;14.20;61.40;15.30;100754.00;;;;5027877;28;20252;-40
2022/01/06 04:30:01;;;;;;;7.17;1.90;;;14.20;61.40;15.30;100768.00;;;;5027791;28;20167;-39
2022/01/06 04:32:26;;;;;;;4.23;2.07;;;14.20;61.60;15.30;100769.00;;;;5026702;28;20171;-41
2022/01/06 04:34:52;;;;;;;4.37;1.90;;;14.20;61.80;15.30;100770.00;;;;5028143;28;20171;-41
2022/01/06 04:37:18;;;;;;;5.53;2.00;;;14.20;61.40;15.20;100778.00;;;;5032366;28;20187;-41
2022/01/06 04:39:44;;;;;;;4.07;1.90;;;14.20;61.60;15.20;100789.00;;;;5033883;28;20178;-40
2022/01/06 04:42:09;;;;;;;5.03;2.23;;;14.20;61.00;15.20;100786.00;;;;5029378;28;20186;-40
2022/01/06 04:44:35;;;;;;;5.33;2.30;;;14.20;61.10;15.20;100785.00;;;;5028978;28;20163;-41
2022/01/06 04:47:01;;;;;;;5.10;2.30;;;14.20;60.90;15.20;100788.00;;;;5032574;28;20213;-42
2022/01/06 04:49:26;;;;;;;3.30;2.00;;;14.20;60.70;15.20;100795.00;;;;5042862;28;20171;-41
2022/01/06 04:51:52;;;;;;;4.77;2.10;;;14.20;60.60;15.20;100784.00;;;;5032692;28;20169;-40
2022/01/06 04:54:18;;;;;;;4.63;2.23;;;14.10;60.40;15.20;100786.00;;;;5028021;28;20633;-40
2022/01/06 04:56:44;;;;;;;5.80;2.33;;;14.10;60.40;15.20;100786.00;;;;5027415;28;20202;-40
2022/01/06 04:59:10;;;;;;;4.70;2.27;;;14.10;60.30;15.20;100793.00;;;;5027493;28;20179;-41
2022/01/06 05:01:36;;;;;;;3.93;2.13;;;14.10;60.10;15.20;100799.00;;;;5026719;28;20175;-42
2022/01/06 05:04:02;;;;;;;4.93;2.37;;;14.10;60.10;15.20;100797.00;;;;5026470;28;20198;-40
2022/01/06 05:06:28;;;;;;;3.73;2.20;;;14.10;60.20;15.20;100806.00;;;;5027434;28;20675;-40
2022/01/06 05:08:54;;;;;;;4.97;2.30;;;14.10;60.00;15.20;100802.00;;;;5028081;28;20252;-42
2022/01/06 05:11:19;;;;;;;6.73;2.57;;;14.00;60.00;15.20;100808.00;;;;5027515;28;20175;-41
2022/01/06 05:13:45;;;;;;;4.43;2.40;;;14.10;60.10;15.10;100808.00;;;;5027164;28;20560;-41
2022/01/06 05:16:11;;;;;;;6.80;2.43;;;14.00;60.10;15.10;100811.00;;;;5027150;28;20171;-40
2022/01/06 05:18:38;;;;;;;4.93;2.37;;;14.10;60.00;15.10;100809.00;;;;5027125;28;20183;-39
2022/01/06 05:21:05;;;;;;;7.10;2.53;;;14.00;59.80;15.10;100744.00;;;;5026991;28;20179;-40
2022/01/06 05:23:31;;;;;;;7.50;2.87;;;14.00;59.90;15.10;100814.00;;;;5027098;28;20302;-41
2022/01/06 05:25:57;;;;;;;5.07;2.50;;;14.00;59.80;15.10;100815.00;;;;5027334;28;20259;-41
2022/01/06 05:28:23;;;;;;;7.40;2.43;;;14.00;59.70;15.10;100826.00;;;;5026861;28;20671;-39
2022/01/06 05:30:49;;;;;;;7.20;2.47;;;14.00;59.80;15.10;100823.00;;;;5026986;28;20229;-40
2022/01/06 05:33:15;;;;;;;7.33;2.67;;;14.00;59.70;15.10;100839.00;;;;5026768;28;20171;-41
2022/01/06 05:35:40;;;;;;;6.00;2.37;;;14.00;59.70;15.10;100830.00;;;;5026626;28;20203;-41
2022/01/06 05:38:06;;;;;;;8.57;2.63;;;13.90;59.50;15.00;100827.00;;;;5026696;28;20230;-41
2022/01/06 05:40:32;;;;;;;5.70;2.70;;;14.00;59.70;15.00;100821.00;;;;5026723;28;20174;-42
2022/01/06 05:42:58;;;;;;;5.93;2.93;;;13.90;59.50;15.00;100828.00;;;;5026682;28;20203;-41
2022/01/06 05:45:24;;;;;;;7.03;2.80;;;13.90;59.30;15.00;100831.00;;;;5026836;28;20194;-42
2022/01/06 05:47:50;;;;;;;8.10;2.70;;;14.00;60.50;15.00;100847.00;;;;5026200;28;20202;-40
2022/01/06 05:50:15;;;;;;;6.77;2.50;;;13.90;59.50;15.00;100856.00;;;;5027575;28;20179;-40
2022/01/06 05:52:41;;;;;;;8.33;2.80;;;13.90;59.40;15.00;100857.00;;;;5032190;28;20171;-40
2022/01/06 05:55:07;;;;;;;6.93;2.73;;;13.90;59.40;15.00;100868.00;;;;5040569;28;20175;-42
2022/01/06 05:57:33;;;;;;;3.90;2.60;;;13.90;59.60;15.00;100866.00;;;;5034386;28;20202;-41
2022/01/06 05:59:59;;;;;;;6.13;2.53;;;13.90;59.50;15.00;100864.00;;;;5025844;28;20175;-41
2022/01/06 06:02:24;;;;;;;5.40;2.70;;;13.80;59.40;15.00;100865.00;;;;5029969;28;20202;-41
2022/01/06 06:04:50;;;;;;;4.07;2.47;;;13.80;59.80;14.90;100866.00;;;;5031075;28;20187;-40
2022/01/06 06:07:19;;;;;;;4.43;2.30;;;13.80;59.70;14.90;100874.00;;;;5025981;28;20765;-40
2022/01/06 06:09:45;;;;;;;4.00;2.40;;;13.80;59.50;14.90;100876.00;;;;5025822;28;20199;-41
2022/01/06 06:12:11;;;;;;;4.97;2.40;;;13.80;59.50;14.90;100885.00;;;;5025210;28;20807;-40
2022/01/06 06:14:37;;;;;;;3.27;2.23;;;13.70;59.60;14.90;100883.00;;;;5025687;28;20179;-41
2022/01/06 06:17:03;;;;;;;4.50;2.50;;;13.80;59.80;14.90;100886.00;;;;5026046;28;20649;-41
2022/01/06 06:19:28;;;;;;;3.87;2.40;;;13.70;59.70;14.80;100894.00;;;;5025403;28;20171;-41
2022/01/06 06:21:54;;;;;;;5.37;2.40;;;13.70;60.40;14.90;100893.00;;;;5025921;28;20163;-41
2022/01/06 06:24:22;;;;;;;4.47;2.30;;;13.70;59.80;14.80;100901.00;;;;5025571;28;20206;-43
2022/01/06 06:26:48;;;;;;;4.47;2.30;;;13.70;59.70;14.80;100899.00;;;;5025714;28;20195;-41
2022/01/06 06:29:13;;;;;;;4.97;2.70;;;13.70;59.90;14.80;100907.00;;;;5026057;28;20175;-42
2022/01/06 06:31:39;;;;;;;4.77;2.40;;;13.70;59.80;14.80;100914.00;;;;5033953;28;20175;-41
2022/01/06 06:34:05;;;;;;;4.30;2.50;;;13.70;59.80;14.80;100918.00;;;;5027655;28;20175;-41
2022/01/06 06:36:31;;;;;;;3.77;2.23;;;13.60;59.90;14.80;100911.00;;;;5026756;28;20187;-41
2022/01/06 06:38:56;;;;;;;3.83;2.40;;;13.70;59.80;14.80;100922.00;;;;5024963;28;20223;-41
2022/01/06 06:41:22;;;;;;;3.40;2.10;;;13.70;59.80;14.80;100909.00;;;;5026963;28;20179;-41
2022/01/06 06:43:48;;;;;;;4.23;2.30;;;13.60;59.80;14.80;100923.00;;;;5026062;28;20781;-42
2022/01/06 06:46:13;;;;;;;4.40;2.10;;;13.60;59.60;14.80;100931.00;;;;5026141;28;20174;-43
2022/01/06 06:48:39;;;;;;;4.07;2.40;;;13.60;59.70;14.70;100918.00;;;;5025507;28;20183;-41
2022/01/06 06:51:05;;;;;;;2.97;2.07;;;13.60;59.80;14.70;100922.00;;;;5025018;28;20177;-41
2022/01/06 06:53:31;;;;;;;3.37;2.43;;;13.60;59.70;14.70;100935.00;;;;5025435;28;20672;-41
2022/01/06 06:55:56;;;;;;;3.60;2.30;;;13.60;59.70;14.70;100937.00;;;;5025475;28;20452;-41
2022/01/06 06:58:22;;;;;;;4.70;2.40;;;13.60;59.70;14.70;100926.00;;;;5025745;28;20187;-42
2022/01/06 07:00:48;;;;;;;3.40;2.10;;;13.60;59.80;14.70;100934.00;;;;5028036;28;20167;-42
2022/01/06 07:03:14;;;;;;;3.20;2.10;;;13.50;59.80;14.70;100934.00;;;;5028595;28;20191;-41
2022/01/06 07:05:39;;;;;;;2.77;2.10;;;13.50;59.80;14.70;100940.00;;;;5025621;28;20548;-40
2022/01/06 07:08:05;;;;;;;3.03;1.90;;;13.50;59.80;14.60;100955.00;;;;5025157;28;20197;-41
2022/01/06 07:10:31;;;;;;;3.07;2.00;;;13.50;59.80;14.60;100964.00;;;;5025329;28;20237;-41
2022/01/06 07:12:57;;;;;;;2.87;2.20;;;13.50;59.80;14.60;100966.00;;;;5027763;28;20684;-40
2022/01/06 07:15:23;;;;;;;3.13;2.20;;;13.50;59.70;14.60;100964.00;;;;5029382;28;20532;-41
2022/01/06 07:17:48;;;;;;;3.67;2.20;;;13.50;59.80;14.60;100974.00;;;;5029529;28;20195;-40
2022/01/06 07:20:14;;;;;;;3.03;2.10;;;13.50;59.80;14.60;100979.00;;;;5028883;28;20186;-41
2022/01/06 07:22:40;;;;;;;2.67;2.10;;;13.50;59.80;14.60;100970.00;;;;5029418;28;20198;-42
2022/01/06 07:25:06;;;;;;;3.93;2.20;;;13.50;59.80;14.60;100981.00;;;;5029575;28;20186;-41
2022/01/06 07:27:32;;;;;;;2.37;2.10;;;13.40;59.70;14.60;100993.00;;;;5028796;28;20986;-41
2022/01/06 07:29:58;;;;;;;3.10;2.17;;;13.40;59.70;14.60;100988.00;;;;5029177;28;20171;-42
2022/01/06 07:32:24;;;;;;;2.40;2.00;;;13.40;59.70;14.50;100994.00;;;;5029453;28;20178;-41
2022/01/06 07:34:51;;;;;;;2.10;1.90;;;13.40;59.70;14.50;100993.00;;;;5029302;28;20225;-41
2022/01/06 07:37:16;;;;;;;2.93;2.03;;;13.40;59.70;14.50;101003.00;;;;5029285;28;20195;-42
2022/01/06 07:39:42;;;;;;;2.10;1.83;;;13.30;59.70;14.50;101007.00;;;;5028921;28;20170;-42
2022/01/06 07:42:08;;;;;;;2.87;2.17;;;13.30;59.70;14.50;101011.00;;;;5030555;28;20560;-40
2022/01/06 07:44:34;;;;;;;2.40;2.00;;;13.30;59.70;14.50;101010.00;;;;5029877;28;20740;-41
2022/01/06 07:47:00;;;;;;;2.30;1.90;;;13.30;59.70;14.50;101017.00;;;;5029223;28;20186;-41
2022/01/06 07:49:27;;;;;;;3.53;2.07;;;13.30;59.70;14.50;101016.00;;;;5029873;28;20171;-41
2022/01/06 07:51:54;;;;;;;2.67;1.90;;;13.30;59.70;14.50;101024.00;;;;5028517;28;20241;-40
2022/01/06 07:54:20;;;;;;;2.10;1.87;;;13.30;59.80;14.40;101035.00;;;;5028840;28;20597;-41
2022/01/06 07:56:46;;;;;;;3.13;2.27;;;13.30;59.70;14.40;101036.00;;;;5028627;28;20222;-41
2022/01/06 07:59:12;;;;;;;2.23;1.80;;;13.30;59.70;14.40;101041.00;;;;5028459;28;20206;-40
2022/01/06 08:01:38;;;;;;;2.83;2.00;;;13.30;59.70;14.40;101037.00;;;;5028585;28;20684;-42
2022/01/06 08:04:03;;;;;;;3.57;2.10;;;13.30;59.70;14.40;101037.00;;;;5028872;28;20195;-41
2022/01/06 08:06:29;;;;;;;2.37;2.10;;;13.20;59.60;14.40;101051.00;;;;5032573;28;20224;-41
2022/01/06 08:08:55;;;;;;;2.83;2.17;;;13.20;59.60;14.40;101042.00;;;;5030009;28;20167;-41
2022/01/06 08:11:21;;;;;;;3.37;2.20;;;13.20;59.70;14.40;101049.00;;;;5029442;28;20179;-41
2022/01/06 08:13:46;;;;;;;2.80;2.00;;;13.20;59.60;14.40;101051.00;;;;5028661;28;20678;-41
2022/01/06 08:16:12;;;;;;;2.67;2.00;;;13.20;59.80;14.30;101052.00;;;;5029165;28;20175;-41
2022/01/06 08:18:38;;;;;;;2.43;1.97;;;13.20;59.80;14.30;101052.00;;;;5028820;28;20186;-41
2022/01/06 08:21:04;;;;;;;2.00;1.80;;;13.10;59.70;14.30;101060.00;;;;5028814;28;20793;-42
2022/01/06 08:23:29;;;;;;;2.20;1.83;;;13.20;59.60;14.30;101053.00;;;;5033374;28;20196;-42
2022/01/06 08:25:55;;;;;;;2.23;1.90;;;13.10;59.70;14.30;101037.00;;;;5035580;28;20151;-41
2022/01/06 08:28:21;;;;;;;2.70;2.00;;;13.10;59.70;14.30;101068.00;;;;5037912;28;20214;-42
2022/01/06 08:30:47;;;;;;;2.90;2.03;;;13.10;59.60;14.30;101067.00;;;;5030066;28;20270;-41
2022/01/06 08:33:13;;;;;;;2.43;2.00;;;13.10;59.70;14.30;101059.00;;;;5028771;28;20186;-41
2022/01/06 08:35:38;;;;;;;2.70;2.10;;;13.10;59.70;14.30;101068.00;;;;5028315;28;20599;-41
2022/01/06 08:38:04;;;;;;;3.07;2.07;;;13.10;59.60;14.20;101088.00;;;;5028003;28;20244;-41
2022/01/06 08:40:31;;;;;;;2.70;2.00;;;13.10;59.70;14.20;101075.00;;;;5027615;28;20187;-42
2022/01/06 08:42:57;;;;;;;3.00;2.10;;;13.10;59.50;14.20;101085.00;;;;5025994;28;20195;-41
2022/01/06 08:45:23;;;;;;;2.43;2.00;;;13.10;59.50;14.20;101089.00;;;;5027634;28;20495;-41
2022/01/06 08:47:48;;;;;;;3.03;1.87;;;13.10;59.60;14.20;101089.00;;;;5027563;28;20284;-41
2022/01/06 08:50:15;;;;;;;2.53;2.00;;;13.10;59.60;14.20;101075.00;;;;5027817;28;20225;-42
2022/01/06 08:52:40;;;;;;;2.60;2.10;;;13.10;59.70;14.20;101084.00;;;;5028027;28;20186;-41
2022/01/06 08:55:07;;;;;;;2.20;2.00;;;13.00;59.60;14.20;101095.00;;;;5026989;28;20171;-41
2022/01/06 08:57:33;;;;;;;2.53;2.10;;;13.10;59.70;14.20;101114.00;;;;5026397;28;20211;-42
2022/01/06 08:59:59;;;;;;;2.57;2.27;;;13.00;59.70;14.20;101099.00;;;;5028256;28;20205;-40
2022/01/06 09:02:26;;;;;;;2.27;2.00;;;13.00;59.80;14.10;101104.00;;;;5029060;28;20175;-41
2022/01/06 09:04:51;;;;;;;2.30;2.10;;;13.00;59.80;14.10;101103.00;;;;5027661;28;20171;-40
2022/01/06 09:07:17;;;;;;;2.17;1.97;;;13.00;59.60;13.80;101100.00;;;;5027197;28;20194;-40
2022/01/06 09:09:43;;;;;;;3.43;2.40;;;13.00;59.80;14.10;101094.00;;;;5027244;28;20182;-41
2022/01/06 09:12:16;;;;;;;4.00;2.20;;;13.00;59.80;14.10;101101.00;;;;5031346;28;20182;-40
2022/01/06 09:14:43;;;;;;;3.10;2.17;;;12.90;60.00;14.10;101104.00;;;;5045469;28;20185;-41
2022/01/06 09:17:08;;;;;;;5.53;2.30;;;13.00;60.10;14.10;101091.00;;;;5044636;28;20670;-42
2022/01/06 09:19:34;;;;;;;3.07;2.23;;;12.90;60.10;14.00;101095.00;;;;5036134;28;20325;-40
2022/01/06 09:22:00;;;;;;;4.97;2.27;;;12.90;60.60;14.00;101106.00;;;;5048972;28;20585;-40
2022/01/06 09:24:25;;;;;;;2.73;1.90;;;12.90;60.70;14.00;101118.00;;;;5049614;28;20202;-40
2022/01/06 09:26:51;;;;;;;5.50;2.40;;;13.00;61.10;14.00;101113.00;;;;5049478;28;20785;-41
2022/01/06 09:29:17;;;;;;;4.20;2.13;;;13.10;62.00;14.10;101111.00;;;;5049366;28;20189;-40
2022/01/06 09:31:43;;;;;;;6.07;2.07;;;13.40;62.30;14.20;101113.00;;;;5050071;28;20178;-41
2022/01/06 09:34:09;;;;;;;4.00;2.50;;;13.60;61.40;14.30;101112.00;;;;5050202;28;20181;-40
2022/01/06 09:36:38;;;;;;;4.17;2.10;;;13.80;60.70;14.40;101135.00;;;;5055953;28;20194;-39
2022/01/06 09:39:05;;;;;;;4.37;2.23;;;14.10;60.40;14.50;101113.00;;;;5049366;28;20261;-41
2022/01/06 09:41:31;;;;;;;3.23;2.00;;;14.40;60.00;14.70;101115.00;;;;5049611;28;20544;-41
2022/01/06 09:43:57;;;;;;;2.73;2.20;;;14.70;59.50;14.90;101115.00;;;;5049384;28;20202;-40
2022/01/06 09:46:23;;;;;;;3.23;2.40;;;15.00;59.30;15.10;101119.00;;;;5049333;28;20737;-41
2022/01/06 09:48:48;;;;;;;3.80;2.20;;;15.30;58.90;15.30;101117.00;;;;5049364;28;20165;-40
2022/01/06 09:51:14;;;;;;;4.03;2.40;;;15.50;58.70;15.40;101116.00;;;;5049581;28;20198;-40
2022/01/06 09:53:40;;;;;;;3.53;2.30;;;15.70;58.90;15.60;101118.00;;;;5049436;28;20180;-41
2022/01/06 09:56:06;;;;;;;2.50;2.30;;;15.90;58.20;15.70;101113.00;;;;5048832;28;20170;-41
2022/01/06 09:58:32;;;;;;;3.57;2.10;;;16.10;58.00;15.90;101131.00;;;;5048967;28;20246;-41
2022/01/06 10:00:58;;;;;;;3.90;2.30;;;16.10;57.80;16.00;101131.00;;;;5046979;28;20202;-40
2022/01/06 10:03:53;;;;;;;3.47;2.30;;;16.20;57.80;16.20;101113.00;;;;5048751;28;20214;-41
2022/01/06 10:06:24;;;;;;;2.67;2.20;;;16.30;57.90;16.20;101111.00;;;;5039961;28;20222;-41
2022/01/06 10:09:05;;;;;;;3.77;2.10;;;16.30;58.20;16.30;101118.00;;;;5048467;28;20171;-41
2022/01/06 10:11:33;;;;;;;3.97;2.20;;;16.30;58.20;16.30;101129.00;;;;5049091;28;20158;-41
2022/01/06 10:14:11;;;;;;;2.47;2.10;;;16.30;58.30;16.40;101112.00;;;;5048763;28;20691;-41
2022/01/06 10:16:50;;;;;;;3.27;2.23;;;16.30;58.50;16.40;101118.00;;;;5056365;28;20893;-42
2022/01/06 10:19:16;;;;;;;3.43;2.20;;;16.30;58.90;16.40;101121.00;;;;5067412;28;20529;-41
2022/01/06 10:21:47;;;;;;;4.10;2.47;;;16.20;59.00;16.50;101123.00;;;;5048784;28;20174;-40
2022/01/06 10:24:19;;;;;;;2.73;2.13;;;16.20;59.20;16.50;101128.00;;;;5047676;28;20281;-40
2022/01/06 10:27:07;;;;;;;2.70;2.00;;;16.20;59.40;16.50;101129.00;;;;5049142;28;20596;-40
2022/01/06 10:29:53;;;;;;;2.40;2.20;;;16.10;59.40;16.50;101135.00;;;;5050212;28;20159;-40
2022/01/06 10:32:21;;;;;;;2.60;2.20;;;16.10;59.40;16.50;101140.00;;;;5049460;28;20272;-40
2022/01/06 10:34:52;;;;;;;3.57;2.20;;;16.10;59.60;16.50;101138.00;;;;5029009;28;20706;-40
2022/01/06 10:37:28;;;;;;;3.60;2.10;;;16.10;59.80;16.50;101138.00;;;;5028757;28;20854;-41
2022/01/06 10:39:59;;;;;;;3.00;2.10;;;16.00;59.80;16.50;101121.00;;;;5028819;28;20165;-41
2022/01/06 10:42:27;;;;;;;2.60;2.30;;;16.00;59.90;16.50;101128.00;;;;5028089;28;20199;-40
2022/01/06 10:44:57;;;;;;;3.37;2.43;;;16.00;59.90;16.50;101132.00;;;;5028337;28;20167;-40
2022/01/06 10:47:40;;;;;;;4.63;2.30;;;15.90;59.80;16.50;101131.00;;;;5026724;28;20198;-40
2022/01/06 10:50:14;;;;;;;4.93;2.27;;;15.90;60.10;16.50;101135.00;;;;5030937;28;20168;-40
2022/01/06 10:52:47;;;;;;;3.70;2.20;;;15.90;60.10;16.50;101139.00;;;;5028468;28;20651;-42